Time;durP1;ratioP1;P1;durP2;ratioP2;P2;SDS_P1;SDS_P2;PMS_P1;PMS_P2;Temp;Humidity;BMP_temperature;BMP_pressure;BME280_temperature;BME280_humidity;BME280_pressure;Samples;Min_cycle;Max_cycle;Signal;HPM_P1;HPM_P2
2023/12/15 00:00:38;;;;;;;1.13;1.03;;;;;;;-143.84;93.42;45186.16;5090868;28;20443;-59
2023/12/15 00:03:05;;;;;;;0.80;0.53;;;;;;;-143.84;94.05;45197.59;5090984;28;20443;-61
2023/12/15 00:05:33;;;;;;;1.07;0.77;;;;;;;-143.84;94.42;45180.47;5090757;28;20439;-61
2023/12/15 00:08:01;;;;;;;1.00;0.90;;;;;;;-143.84;94.45;45186.16;5090321;28;20475;-61
2023/12/15 00:10:28;;;;;;;0.80;0.70;;;;;;;-143.84;94.63;45193.78;5090771;28;20440;-62
2023/12/15 00:12:55;;;;;;;2.00;0.53;;;;;;;-143.84;94.96;45189.97;5090518;28;20926;-62
2023/12/15 00:15:23;;;;;;;1.10;0.80;;;;;;;-143.84;95.08;45174.75;5090764;28;20505;-61
2023/12/15 00:17:50;;;;;;;0.87;0.70;;;;;;;-143.84;95.06;45184.25;5090236;28;20622;-62
2023/12/15 00:20:17;;;;;;;1.10;1.00;;;;;;;-143.84;95.08;45174.75;5090352;28;20431;-61
2023/12/15 00:22:44;;;;;;;0.80;0.60;;;;;;;-143.84;95.09;45195.69;5090309;28;20444;-61
2023/12/15 00:25:13;;;;;;;0.80;0.40;;;;;;;-143.84;95.05;45193.78;5090258;28;20443;-62
2023/12/15 00:27:40;;;;;;;1.27;0.90;;;;;;;-143.84;94.99;45176.66;5090355;28;20541;-61
2023/12/15 00:30:08;;;;;;;0.87;0.67;;;;;;;-143.84;94.63;45216.63;5090315;28;20436;-62
2023/12/15 00:32:35;;;;;;;1.83;1.00;;;;;;;-143.84;94.32;45170.94;5090097;28;20439;-61
2023/12/15 00:35:02;;;;;;;1.83;1.20;;;;;;;-143.84;94.07;45186.16;5089841;28;20466;-62
2023/12/15 00:37:30;;;;;;;1.27;0.70;;;;;;;-143.84;93.86;45188.06;5089971;28;20440;-62
2023/12/15 00:39:57;;;;;;;3.00;0.63;;;;;;;-143.84;93.79;45169.03;5089840;28;20542;-61
2023/12/15 00:42:25;;;;;;;0.90;0.70;;;;;;;-143.84;93.82;45193.78;5090457;28;20432;-61
2023/12/15 00:44:52;;;;;;;0.90;0.60;;;;;;;-143.84;94.45;45203.31;5089941;28;20447;-61
2023/12/15 00:47:20;;;;;;;1.00;0.90;;;;;;;-143.84;94.56;45209.03;5089665;28;20942;-61
2023/12/15 00:49:47;;;;;;;0.83;0.53;;;;;;;-143.84;94.76;45170.94;5088545;28;20451;-61
2023/12/15 00:52:14;;;;;;;1.53;0.73;;;;;;;-143.84;95.03;45188.06;5088732;28;20444;-61
2023/12/15 00:54:41;;;;;;;1.23;1.13;;;;;;;-143.84;94.96;45157.59;5089081;28;20501;-61
2023/12/15 00:57:08;;;;;;;0.97;0.77;;;;;;;-143.84;95.09;45170.94;5089524;28;20858;-62
2023/12/15 00:59:36;;;;;;;0.80;0.50;;;;;;;-143.84;95.34;45161.41;5089360;28;20440;-62
2023/12/15 01:02:05;;;;;;;1.57;1.20;;;;;;;-143.84;95.07;45174.75;5089411;28;20492;-62
2023/12/15 01:04:33;;;;;;;0.90;0.80;;;;;;;-143.84;94.74;45212.84;5089094;28;20505;-62
2023/12/15 01:07:00;;;;;;;1.00;0.67;;;;;;;-143.84;94.80;45199.50;5089276;28;20510;-62
2023/12/15 01:09:27;;;;;;;1.00;0.87;;;;;;;-143.84;94.57;45170.94;5089187;28;20440;-62
2023/12/15 01:11:55;;;;;;;1.20;0.70;;;;;;;-143.84;94.37;45189.97;5089536;28;20518;-61
2023/12/15 01:14:22;;;;;;;0.87;0.70;;;;;;;-143.84;94.67;45197.59;5089327;28;20444;-61
2023/12/15 01:16:51;;;;;;;5.80;0.97;;;;;;;-143.84;94.70;45189.97;5089220;28;20852;-61
2023/12/15 01:19:18;;;;;;;0.90;0.80;;;;;;;-143.84;94.88;45207.13;5089474;28;21205;-61
2023/12/15 01:21:45;;;;;;;1.10;1.00;;;;;;;-143.84;94.81;45203.31;5089373;28;20436;-61
2023/12/15 01:24:13;;;;;;;0.97;0.87;;;;;;;-143.84;94.69;45191.88;5089708;28;21209;-61
2023/12/15 01:26:40;;;;;;;0.90;0.80;;;;;;;-143.84;94.57;45169.03;5089218;28;20501;-62
2023/12/15 01:29:08;;;;;;;0.80;0.50;;;;;;;-143.84;94.59;45186.16;5089340;28;20444;-61
2023/12/15 01:31:35;;;;;;;0.90;0.80;;;;;;;-143.84;94.27;45163.31;5089365;28;20439;-61
2023/12/15 01:34:03;;;;;;;0.80;0.63;;;;;;;-143.84;94.73;45176.66;5089130;28;20448;-61
2023/12/15 01:36:30;;;;;;;7.57;0.80;;;;;;;-143.84;94.47;45174.75;5088973;28;20786;-61
2023/12/15 01:38:58;;;;;;;0.80;0.53;;;;;;;-143.84;94.63;45189.97;5088887;28;20933;-61
2023/12/15 01:41:25;;;;;;;1.20;0.80;;;;;;;-143.84;94.73;45153.81;5088962;28;20451;-61
2023/12/15 01:43:52;;;;;;;0.80;0.40;;;;;;;-143.84;94.55;45184.25;5089179;28;21226;-62
2023/12/15 01:46:19;;;;;;;1.00;0.73;;;;;;;-143.84;94.56;45193.78;5088841;28;20450;-61
2023/12/15 01:48:46;;;;;;;0.80;0.50;;;;;;;-143.84;94.44;45193.78;5089064;28;20479;-62
2023/12/15 01:51:15;;;;;;;4.93;1.03;;;;;;;-143.84;94.23;45159.50;5088836;28;20446;-61
2023/12/15 01:53:44;;;;;;;1.33;1.17;;;;;;;-143.84;93.98;45169.03;5089143;28;20466;-62
2023/12/15 01:56:11;;;;;;;1.67;1.30;;;;;;;-143.84;93.88;45237.59;5088790;28;20463;-62
2023/12/15 01:58:39;;;;;;;2.83;1.23;;;;;;;-143.84;94.01;45228.06;5088677;28;20776;-61
2023/12/15 02:01:07;;;;;;;1.20;1.10;;;;;;;-143.84;94.20;45178.56;5088974;28;20469;-62
2023/12/15 02:03:35;;;;;;;2.37;2.27;;;;;;;-143.84;94.17;45176.66;5092752;28;20504;-62
2023/12/15 02:06:02;;;;;;;2.63;2.43;;;;;;;-143.84;94.16;45201.41;5093222;28;20442;-62
2023/12/15 02:08:31;;;;;;;2.30;0.87;;;;;;;-143.84;94.00;45212.84;5092867;28;20848;-62
2023/12/15 02:10:58;;;;;;;2.87;1.57;;;;;;;-143.84;93.88;45201.41;5092843;28;20451;-62
2023/12/15 02:13:25;;;;;;;1.60;1.37;;;;;;;-143.84;93.71;45189.97;5092554;28;20436;-61
2023/12/15 02:15:52;;;;;;;1.10;0.80;;;;;;;-143.84;93.61;45191.88;5092652;28;20464;-62
2023/12/15 02:18:19;;;;;;;4.13;2.63;;;;;;;-143.84;93.83;45205.22;5092273;28;20482;-62
2023/12/15 02:20:46;;;;;;;1.07;0.97;;;;;;;-143.84;93.98;45191.88;5092914;28;20453;-62
2023/12/15 02:23:15;;;;;;;1.20;1.10;;;;;;;-143.84;93.76;45201.41;5092694;28;20512;-61
2023/12/15 02:25:42;;;;;;;1.87;1.43;;;;;;;-143.84;93.62;45199.50;5092887;28;20516;-62
2023/12/15 02:28:09;;;;;;;1.00;0.73;;;;;;;-143.84;93.44;45174.75;5092488;28;20981;-62
2023/12/15 02:30:36;;;;;;;1.00;0.70;;;;;;;-143.84;93.47;45193.78;5092427;28;20436;-62
2023/12/15 02:33:04;;;;;;;1.20;1.10;;;;;;;-143.84;93.45;45197.59;5092627;28;20845;-61
2023/12/15 02:35:31;;;;;;;1.00;0.90;;;;;;;-143.84;93.23;45176.66;5092345;28;20427;-62
2023/12/15 02:37:58;;;;;;;1.67;1.57;;;;;;;-143.84;93.07;45176.66;5092291;28;20447;-62
2023/12/15 02:40:26;;;;;;;2.43;1.23;;;;;;;-143.84;92.92;45184.25;5092388;28;20481;-61
2023/12/15 02:42:53;;;;;;;1.30;0.90;;;;;;;-143.84;93.12;45189.97;5092751;28;20440;-62
2023/12/15 02:45:21;;;;;;;2.80;1.70;;;;;;;-143.84;93.45;45203.31;5092156;28;20447;-61
2023/12/15 02:47:48;;;;;;;1.93;1.80;;;;;;;-143.84;93.25;45191.88;5091642;28;20475;-61
2023/12/15 02:50:15;;;;;;;2.10;2.00;;;;;;;-143.84;93.55;45205.22;5092008;28;20489;-61
2023/12/15 02:52:42;;;;;;;0.80;0.43;;;;;;;-143.84;93.38;45174.75;5092299;28;20436;-61
2023/12/15 02:55:11;;;;;;;1.17;1.00;;;;;;;-143.84;93.59;45201.41;5091829;28;20439;-61
2023/12/15 02:57:39;;;;;;;1.77;1.67;;;;;;;-143.84;93.43;45209.03;5092427;28;20443;-62
2023/12/15 03:00:09;;;;;;;2.90;2.13;;;;;;;-143.84;93.84;45157.59;5091982;28;20448;-62
2023/12/15 03:02:36;;;;;;;1.03;0.90;;;;;;;-143.84;93.71;45197.59;5091611;28;21019;-61
2023/12/15 03:05:03;;;;;;;1.67;1.00;;;;;;;-143.84;94.10;45189.97;5091854;28;20469;-61
2023/12/15 03:07:30;;;;;;;1.70;1.50;;;;;;;-143.84;94.31;45176.66;5091592;28;20489;-61
2023/12/15 03:09:58;;;;;;;2.13;1.90;;;;;;;-143.84;94.53;45209.03;5091979;28;20514;-61
2023/12/15 03:12:25;;;;;;;2.83;1.20;;;;;;;-143.84;94.88;45189.97;5091648;28;20493;-62
2023/12/15 03:14:55;;;;;;;1.00;0.90;;;;;;;-143.84;94.76;45203.31;5091844;28;20493;-62
2023/12/15 03:17:22;;;;;;;5.30;1.77;;;;;;;-143.84;94.97;45209.03;5091017;28;20484;-62
2023/12/15 03:19:50;;;;;;;2.77;2.60;;;;;;;-143.84;95.03;45176.66;5091515;28;20470;-61
2023/12/15 03:22:19;;;;;;;0.90;0.77;;;;;;;-143.84;95.17;45224.25;5091420;28;20448;-62
2023/12/15 03:24:46;;;;;;;4.20;3.80;;;;;;;-143.84;95.06;45176.66;5091245;28;20468;-61
2023/12/15 03:27:13;;;;;;;7.73;1.90;;;;;;;-143.84;95.41;45199.50;5091460;28;20448;-62
2023/12/15 03:29:40;;;;;;;1.30;1.13;;;;;;;-143.84;94.89;45197.59;5091298;28;20480;-62
2023/12/15 03:32:09;;;;;;;3.70;2.00;;;;;;;-143.84;95.15;45205.22;5091629;28;20513;-62
2023/12/15 03:34:36;;;;;;;2.30;1.93;;;;;;;-143.84;95.15;45210.94;5091299;28;20447;-61
2023/12/15 03:37:03;;;;;;;2.40;1.90;;;;;;;-143.84;95.24;45220.44;5091103;28;20954;-61
2023/12/15 03:39:30;;;;;;;3.57;1.43;;;;;;;-143.84;95.17;45205.22;5091243;28;20440;-62
2023/12/15 03:41:57;;;;;;;1.30;1.20;;;;;;;-143.84;95.24;45189.97;5091130;28;20493;-62
2023/12/15 03:44:24;;;;;;;2.10;1.13;;;;;;;-143.84;95.52;45189.97;5090751;28;20469;-61
2023/12/15 03:46:51;;;;;;;0.90;0.70;;;;;;;-143.84;95.93;45205.22;5091188;28;20455;-61
2023/12/15 03:49:20;;;;;;;0.80;0.60;;;;;;;-143.84;95.40;45201.41;5090891;28;21004;-61
2023/12/15 03:51:47;;;;;;;2.80;1.07;;;;;;;-143.84;95.56;45199.50;5091149;28;20505;-61
2023/12/15 03:54:14;;;;;;;1.40;0.97;;;;;;;-143.84;95.77;45201.41;5090906;28;20444;-61
2023/12/15 03:56:41;;;;;;;3.93;2.53;;;;;;;-143.84;95.73;45191.88;5090950;28;20497;-62
2023/12/15 03:59:08;;;;;;;0.90;0.73;;;;;;;-143.84;95.90;45189.97;5090802;28;20463;-62
2023/12/15 04:01:36;;;;;;;1.70;1.60;;;;;;;-143.84;96.09;45188.06;5090887;28;20773;-61
2023/12/15 04:04:03;;;;;;;2.33;1.73;;;;;;;-143.84;96.39;45205.22;5090667;28;20440;-61
2023/12/15 04:06:31;;;;;;;1.87;1.67;;;;;;;-143.84;96.47;45228.06;5090886;28;20458;-61
2023/12/15 04:08:58;;;;;;;0.97;0.87;;;;;;;-143.84;96.49;45189.97;5090497;28;20471;-60
2023/12/15 04:11:25;;;;;;;1.10;0.77;;;;;;;-143.84;96.10;45207.13;5090561;28;21002;-61
2023/12/15 04:13:53;;;;;;;0.80;0.50;;;;;;;-143.84;95.91;45193.78;5090446;28;20440;-61
2023/12/15 04:16:20;;;;;;;0.80;0.57;;;;;;;-143.84;95.90;45191.88;5089844;28;20937;-61
2023/12/15 04:18:47;;;;;;;1.00;0.90;;;;;;;-143.84;95.92;45222.34;5070925;28;20460;-64
2023/12/15 04:21:14;;;;;;;0.90;0.63;;;;;;;-143.84;96.10;45231.88;5069870;28;20510;-64
2023/12/15 04:23:43;;;;;;;0.80;0.50;;;;;;;-143.84;95.79;45199.50;5069546;28;20991;-64
2023/12/15 04:26:10;;;;;;;1.00;0.67;;;;;;;-143.84;95.64;45214.72;5069444;28;20824;-64
2023/12/15 04:28:37;;;;;;;1.57;1.47;;;;;;;-143.84;95.95;45224.25;5068968;28;20483;-64
2023/12/15 04:31:04;;;;;;;0.90;0.70;;;;;;;-143.84;96.43;45210.94;5069576;28;20437;-64
2023/12/15 04:33:31;;;;;;;0.80;0.50;;;;;;;-143.84;96.64;45186.16;5069530;28;20448;-64
2023/12/15 04:35:59;;;;;;;0.80;0.60;;;;;;;-143.84;96.20;45205.22;5070019;28;20455;-64
2023/12/15 04:38:26;;;;;;;1.00;0.73;;;;;;;-143.84;96.40;45220.44;5069617;28;20868;-64
2023/12/15 04:40:54;;;;;;;1.23;0.70;;;;;;;-143.84;96.10;45210.94;5069479;28;20433;-64
2023/12/15 04:43:21;;;;;;;0.90;0.60;;;;;;;-143.84;96.65;45186.16;5069048;28;20445;-64
2023/12/15 04:45:48;;;;;;;0.80;0.60;;;;;;;-143.84;96.52;45197.59;5069865;28;21246;-64
2023/12/15 04:48:16;;;;;;;1.53;1.33;;;;;;;-143.84;96.76;45195.69;5069372;28;20476;-64
2023/12/15 04:50:43;;;;;;;0.80;0.40;;;;;;;-143.84;96.71;45205.22;5069503;28;20490;-64
2023/12/15 04:53:10;;;;;;;1.23;1.13;;;;;;;-143.84;96.76;45195.69;5076698;28;20454;-63
2023/12/15 04:55:37;;;;;;;0.80;0.40;;;;;;;-143.84;96.70;45209.03;5089698;28;20436;-63
2023/12/15 04:58:07;;;;;;;0.80;0.60;;;;;;;-143.84;96.62;45207.13;5089488;28;20443;-63
2023/12/15 05:00:34;;;;;;;1.53;1.43;;;;;;;-143.84;96.75;45201.41;5089125;28;20444;-63
2023/12/15 05:03:01;;;;;;;1.23;1.13;;;;;;;-143.84;96.78;45189.97;5089654;28;20500;-63
2023/12/15 05:05:28;;;;;;;0.80;0.47;;;;;;;-143.84;96.88;45203.31;5089313;28;20926;-63
2023/12/15 05:07:55;;;;;;;1.10;0.93;;;;;;;-143.84;96.78;45209.03;5089142;28;20483;-63
2023/12/15 05:10:23;;;;;;;0.90;0.60;;;;;;;-143.84;96.53;45197.59;5089173;28;20526;-61
2023/12/15 05:12:50;;;;;;;0.80;0.60;;;;;;;-143.84;96.73;45184.25;5088993;28;20454;-61
2023/12/15 05:15:18;;;;;;;0.80;0.50;;;;;;;-143.84;96.61;45205.22;5089156;28;22504;-61
2023/12/15 05:17:46;;;;;;;1.23;1.13;;;;;;;-143.84;96.54;45216.63;5089063;28;20581;-61
2023/12/15 05:20:13;;;;;;;0.80;0.50;;;;;;;-143.84;96.54;45209.03;5089043;28;20805;-63
2023/12/15 05:22:40;;;;;;;0.80;0.60;;;;;;;-143.84;96.31;45201.41;5088954;28;20444;-63
2023/12/15 05:25:08;;;;;;;0.80;0.50;;;;;;;-143.84;96.45;45197.59;5088819;28;21199;-64
2023/12/15 05:27:35;;;;;;;0.90;0.70;;;;;;;-143.84;95.90;45199.50;5088571;28;20450;-64
2023/12/15 05:30:03;;;;;;;0.80;0.50;;;;;;;-143.84;95.84;45224.25;5088291;28;21069;-64
2023/12/15 05:32:31;;;;;;;0.80;0.40;;;;;;;-143.84;95.72;45220.44;5088147;28;20454;-64
2023/12/15 05:34:58;;;;;;;0.80;0.50;;;;;;;-143.84;95.92;45197.59;5088493;28;20470;-64
2023/12/15 05:37:25;;;;;;;1.40;1.30;;;;;;;-143.84;95.92;45210.94;5087242;28;20444;-64
2023/12/15 05:39:53;;;;;;;0.83;0.57;;;;;;;-143.84;95.64;45231.88;5088291;28;20442;-63
2023/12/15 05:42:20;;;;;;;0.80;0.40;;;;;;;-143.84;96.16;45203.31;5088501;28;20452;-64
2023/12/15 05:44:47;;;;;;;0.80;0.40;;;;;;;-143.84;96.42;45209.03;5088965;28;20447;-64
2023/12/15 05:47:15;;;;;;;0.80;0.40;;;;;;;-143.84;96.34;45180.47;5088575;28;20450;-64
2023/12/15 05:49:43;;;;;;;1.23;0.70;;;;;;;-143.84;96.04;45210.94;5088567;28;20955;-63
2023/12/15 05:52:11;;;;;;;0.80;0.40;;;;;;;-143.84;96.33;45228.06;5088594;28;20442;-64
2023/12/15 05:54:39;;;;;;;0.80;0.40;;;;;;;-143.84;95.86;45205.22;5088413;28;20495;-63
2023/12/15 05:57:07;;;;;;;0.80;0.50;;;;;;;-143.84;96.29;45209.03;5088732;28;20545;-63
2023/12/15 05:59:34;;;;;;;0.80;0.40;;;;;;;-143.84;96.32;45201.41;5088758;28;20432;-63
2023/12/15 06:02:01;;;;;;;0.80;0.50;;;;;;;-143.84;96.04;45203.31;5088700;28;21012;-63
2023/12/15 06:04:28;;;;;;;0.80;0.50;;;;;;;-143.84;96.32;45203.31;5088475;28;20453;-64
2023/12/15 06:06:56;;;;;;;0.80;0.60;;;;;;;-143.84;96.34;45237.59;5088431;28;20432;-64
2023/12/15 06:09:24;;;;;;;0.90;0.80;;;;;;;-143.84;96.05;45243.31;5088201;28;20532;-63
2023/12/15 06:11:53;;;;;;;0.80;0.40;;;;;;;-143.84;96.06;45216.63;5088251;28;20481;-61
2023/12/15 06:14:21;;;;;;;0.80;0.50;;;;;;;-143.84;96.17;45224.25;5088249;28;20538;-61
2023/12/15 06:16:48;;;;;;;0.80;0.50;;;;;;;-143.84;95.97;45203.31;5088481;28;20510;-61
2023/12/15 06:19:16;;;;;;;7.83;2.30;;;;;;;-143.84;96.23;45210.94;5088569;28;20457;-61
2023/12/15 06:21:43;;;;;;;0.80;0.40;;;;;;;-143.84;95.66;45228.06;5088355;28;20444;-61
2023/12/15 06:24:11;;;;;;;0.80;0.40;;;;;;;-143.84;96.04;45226.16;5088320;28;20441;-61
2023/12/15 06:26:39;;;;;;;0.80;0.50;;;;;;;-143.84;95.84;45233.78;5088407;28;20458;-61
2023/12/15 06:29:06;;;;;;;0.80;0.40;;;;;;;-143.84;96.30;45209.03;5088139;28;20479;-61
2023/12/15 06:31:33;;;;;;;0.80;0.40;;;;;;;-143.84;96.00;45209.03;5088247;28;20486;-61
2023/12/15 06:34:00;;;;;;;0.80;0.50;;;;;;;-143.84;97.01;45195.69;5088482;28;20435;-61
2023/12/15 06:36:27;;;;;;;0.80;0.47;;;;;;;-143.84;96.58;45193.78;5088476;28;20443;-61
2023/12/15 06:38:54;;;;;;;1.00;0.80;;;;;;;-143.84;96.62;45209.03;5087921;28;20975;-61
2023/12/15 06:41:23;;;;;;;1.00;0.70;;;;;;;-143.84;96.04;45210.94;5088127;28;20790;-61
2023/12/15 06:43:50;;;;;;;0.80;0.40;;;;;;;-143.84;96.14;45228.06;5088150;28;20447;-61
2023/12/15 06:46:17;;;;;;;0.80;0.40;;;;;;;-143.84;97.01;45212.84;5087996;28;20456;-60
2023/12/15 06:48:44;;;;;;;0.80;0.53;;;;;;;-143.84;96.18;45205.22;5090742;28;20476;-60
2023/12/15 06:51:11;;;;;;;0.80;0.50;;;;;;;-143.84;96.55;45235.69;5091869;28;20444;-60
2023/12/15 06:53:39;;;;;;;0.80;0.60;;;;;;;-143.84;97.04;45239.50;5091668;28;20509;-60
2023/12/15 06:56:06;;;;;;;0.80;0.53;;;;;;;-143.84;96.91;45222.34;5091718;28;20847;-60
2023/12/15 06:58:36;;;;;;;1.27;0.63;;;;;;;-143.84;96.83;45228.06;5091636;28;20453;-60
2023/12/15 07:01:04;;;;;;;1.07;0.97;;;;;;;-143.84;97.08;45249.00;5091489;28;20498;-61
2023/12/15 07:03:31;;;;;;;8.73;2.43;;;;;;;-143.84;97.32;45226.16;5091411;28;20452;-60
2023/12/15 07:05:59;;;;;;;4.40;4.10;;;;;;;-143.84;96.96;45233.78;5091839;28;20558;-60
2023/12/15 07:08:26;;;;;;;1.73;1.47;;;;;;;-143.84;96.87;45241.41;5091352;28;20450;-60
2023/12/15 07:10:53;;;;;;;1.20;0.97;;;;;;;-143.84;97.12;45222.34;5091436;28;20484;-60
2023/12/15 07:13:20;;;;;;;0.80;0.47;;;;;;;-143.84;97.11;45212.84;5091492;28;20784;-60
2023/12/15 07:15:49;;;;;;;0.80;0.40;;;;;;;-143.84;96.89;45195.69;5091210;28;20461;-60
2023/12/15 07:18:16;;;;;;;0.80;0.43;;;;;;;-143.84;97.07;45193.78;5091232;28;20486;-60
2023/12/15 07:20:43;;;;;;;0.80;0.40;;;;;;;-143.84;97.12;45226.16;5091403;28;20438;-62
2023/12/15 07:23:10;;;;;;;1.00;0.60;;;;;;;-143.84;96.87;45201.41;5091169;28;20440;-62
2023/12/15 07:25:38;;;;;;;0.80;0.60;;;;;;;-143.84;97.34;45239.50;5091224;28;20515;-62
2023/12/15 07:28:05;;;;;;;1.23;0.80;;;;;;;-143.84;97.75;45226.16;5091069;28;20529;-62
2023/12/15 07:30:32;;;;;;;1.00;0.70;;;;;;;-143.84;97.37;45245.19;5090958;28;20488;-62
2023/12/15 07:33:01;;;;;;;0.80;0.50;;;;;;;-143.84;97.49;45229.97;5091262;28;20489;-62
2023/12/15 07:35:28;;;;;;;0.80;0.40;;;;;;;-143.84;97.24;45216.63;5091005;28;20800;-62
2023/12/15 07:37:55;;;;;;;0.80;0.50;;;;;;;-143.84;97.41;45216.63;5090847;28;20468;-62
2023/12/15 07:40:23;;;;;;;3.20;2.10;;;;;;;-143.84;97.77;45201.41;5090877;28;20441;-63
2023/12/15 07:42:50;;;;;;;0.80;0.70;;;;;;;-143.84;97.43;45237.59;5090838;28;20525;-62
2023/12/15 07:45:17;;;;;;;1.40;1.30;;;;;;;-143.84;96.85;45229.97;5090817;28;21130;-63
2023/12/15 07:47:44;;;;;;;2.30;1.23;;;;;;;-143.84;97.29;45209.03;5090789;28;20565;-62
2023/12/15 07:50:13;;;;;;;0.83;0.47;;;;;;;-143.84;96.68;45233.78;5090706;28;20480;-60
2023/12/15 07:52:40;;;;;;;0.80;0.50;;;;;;;-143.84;96.98;45245.19;5090628;28;20445;-60
2023/12/15 07:55:08;;;;;;;0.80;0.63;;;;;;;-143.84;96.97;45241.41;5090528;28;20439;-60
2023/12/15 07:57:35;;;;;;;0.80;0.47;;;;;;;-143.84;96.85;45210.94;5090666;28;21096;-60
2023/12/15 08:00:05;;;;;;;0.80;0.40;;;;;;;-143.84;96.72;45245.19;5089595;28;20433;-60
2023/12/15 08:02:32;;;;;;;2.50;2.30;;;;;;;-143.84;96.58;45226.16;5090677;28;20849;-60
2023/12/15 08:05:00;;;;;;;1.10;0.93;;;;;;;-143.84;96.44;45218.53;5090513;28;20932;-60
2023/12/15 08:07:28;;;;;;;0.80;0.50;;;;;;;-143.84;96.72;45237.59;5090398;28;20977;-60
2023/12/15 08:09:56;;;;;;;0.93;0.83;;;;;;;-143.84;96.22;45210.94;5090164;28;20999;-60
2023/12/15 08:12:23;;;;;;;0.80;0.57;;;;;;;-143.84;96.42;45210.94;5090334;28;20494;-60
2023/12/15 08:14:50;;;;;;;0.90;0.60;;;;;;;-143.84;96.50;45229.97;5090481;28;20924;-59
2023/12/15 08:17:17;;;;;;;1.67;1.57;;;;;;;-143.84;96.99;45189.97;5089719;28;20480;-60
2023/12/15 08:19:44;;;;;;;6.43;4.63;;;;;;;-143.84;96.91;45224.25;5089840;28;20446;-60
2023/12/15 08:22:12;;;;;;;8.40;7.00;;;;;;;-143.84;97.58;45231.88;5089958;28;20521;-60
2023/12/15 08:24:40;;;;;;;0.80;0.60;;;;;;;-143.84;95.87;45241.41;5089867;28;20446;-60
2023/12/15 08:27:07;;;;;;;0.80;0.40;;;;;;;-143.84;95.53;45250.91;5090204;28;20446;-60
2023/12/15 08:29:35;;;;;;;0.80;0.50;;;;;;;-143.84;95.22;45218.53;5067520;28;20863;-59
2023/12/15 08:32:02;;;;;;;0.80;0.50;;;;;;;-143.84;95.57;45243.31;5069437;28;20844;-60
2023/12/15 08:34:29;;;;;;;0.80;0.40;;;;;;;-143.84;95.99;45222.34;5069482;28;20939;-60
2023/12/15 08:36:56;;;;;;;0.80;0.53;;;;;;;-143.84;95.64;45231.88;5069274;28;20453;-60
2023/12/15 08:39:23;;;;;;;0.90;0.77;;;;;;;-143.84;95.01;45229.97;5069322;28;20438;-61
2023/12/15 08:41:52;;;;;;;0.80;0.50;;;;;;;-143.84;94.62;45233.78;5069360;28;20443;-60
2023/12/15 08:44:19;;;;;;;1.43;0.63;;;;;;;-143.84;95.19;45247.09;5076512;28;20456;-60
2023/12/15 08:46:46;;;;;;;0.90;0.70;;;;;;;-143.84;95.28;45229.97;5089966;28;20448;-60
2023/12/15 08:49:13;;;;;;;0.90;0.57;;;;;;;-143.84;94.76;45220.44;5089493;28;21015;-60
2023/12/15 08:51:40;;;;;;;7.90;2.10;;;;;;;-143.84;95.11;45243.31;5089621;28;20445;-60
2023/12/15 08:54:08;;;;;;;0.80;0.50;;;;;;;-143.84;94.68;45235.69;5089645;28;21001;-60
2023/12/15 08:56:35;;;;;;;1.47;1.00;;;;;;;-143.84;94.67;45250.91;5089798;28;20444;-60
2023/12/15 08:59:04;;;;;;;3.93;1.17;;;;;;;-143.84;94.77;45243.31;5089612;28;20828;-60
2023/12/15 09:01:33;;;;;;;0.80;0.50;;;;;;;-143.84;94.67;45222.34;5089628;28;20478;-60
2023/12/15 09:04:00;;;;;;;0.80;0.50;;;;;;;-143.84;94.69;45229.97;5089331;28;20440;-60
2023/12/15 09:06:28;;;;;;;0.80;0.50;;;;;;;-143.84;94.66;45201.41;5089290;28;20440;-60
2023/12/15 09:08:55;;;;;;;0.80;0.50;;;;;;;-143.84;94.22;45237.59;5089217;28;20440;-60
2023/12/15 09:11:22;;;;;;;0.80;0.40;;;;;;;-143.84;93.69;45224.25;5088958;28;20480;-60
2023/12/15 09:13:49;;;;;;;0.80;0.60;;;;;;;-143.84;93.68;45245.19;5089508;28;20812;-60
2023/12/15 09:16:18;;;;;;;0.80;0.40;;;;;;;-143.84;93.63;45229.97;5089436;28;20445;-61
2023/12/15 09:18:45;;;;;;;1.03;0.87;;;;;;;-143.84;93.34;45239.50;5088917;28;20444;-60
2023/12/15 09:21:12;;;;;;;2.20;2.10;;;;;;;-143.84;93.88;45239.50;5089172;28;20817;-60
2023/12/15 09:23:39;;;;;;;3.27;1.70;;;;;;;-143.84;94.04;45243.31;5089121;28;20444;-60
2023/12/15 09:26:07;;;;;;;0.80;0.60;;;;;;;-143.84;92.97;45216.63;5088977;28;20438;-60
2023/12/15 09:28:34;;;;;;;0.80;0.40;;;;;;;-143.84;92.72;45254.72;5089045;28;20455;-60
2023/12/15 09:31:01;;;;;;;0.80;0.50;;;;;;;-143.84;93.26;45218.53;5088806;28;20476;-60
2023/12/15 09:33:30;;;;;;;0.80;0.50;;;;;;;-143.84;92.47;45199.50;5088706;28;20441;-61
2023/12/15 09:35:57;;;;;;;0.80;0.50;;;;;;;-143.84;92.36;45224.25;5089223;28;20449;-60
2023/12/15 09:38:24;;;;;;;0.80;0.60;;;;;;;-143.84;91.93;45220.44;5089115;28;20444;-60
2023/12/15 09:40:52;;;;;;;0.80;0.50;;;;;;;-143.84;91.75;45224.25;5089034;28;21202;-60
2023/12/15 09:43:19;;;;;;;0.80;0.50;;;;;;;-143.84;91.99;45226.16;5088915;28;20450;-60
2023/12/15 09:45:46;;;;;;;0.80;0.50;;;;;;;-143.84;91.45;45231.88;5088879;28;20428;-60
2023/12/15 09:48:17;;;;;;;8.17;7.40;;;;;;;-143.84;91.67;45214.72;5088602;28;20479;-60
2023/12/15 09:50:51;;;;;;;1.43;1.33;;;;;;;-143.84;92.02;45243.31;5088572;28;20549;-60
2023/12/15 09:53:19;;;;;;;0.80;0.60;;;;;;;-143.84;91.60;45235.69;5088909;28;20587;-60
2023/12/15 09:55:47;;;;;;;0.80;0.50;;;;;;;-143.84;91.69;45224.25;5088625;28;20433;-60
2023/12/15 09:58:15;;;;;;;0.80;0.50;;;;;;;-143.84;90.96;45210.94;5088848;28;20467;-60
2023/12/15 10:00:42;;;;;;;0.80;0.47;;;;;;;-143.84;91.97;45249.00;5088393;28;20459;-60
2023/12/15 10:03:09;;;;;;;0.80;0.40;;;;;;;-143.84;91.81;45243.31;5087962;28;20447;-60
2023/12/15 10:05:36;;;;;;;0.80;0.40;;;;;;;-143.84;92.09;45228.06;5088450;28;20434;-60
2023/12/15 10:08:05;;;;;;;0.90;0.60;;;;;;;-143.84;91.71;45237.59;5087921;28;21014;-60
2023/12/15 10:10:32;;;;;;;5.30;3.53;;;;;;;-143.84;91.64;45235.69;5087825;28;20488;-60
2023/12/15 10:12:59;;;;;;;0.90;0.77;;;;;;;-143.84;91.53;45229.97;5087760;28;20445;-60
2023/12/15 10:15:27;;;;;;;1.07;0.97;;;;;;;-143.84;91.29;45229.97;5088211;28;20823;-60
2023/12/15 10:17:55;;;;;;;0.80;0.60;;;;;;;-143.84;91.13;45220.44;5087946;28;20591;-60
2023/12/15 10:20:22;;;;;;;0.80;0.50;;;;;;;-143.84;90.84;45228.06;5088092;28;20457;-60
2023/12/15 10:22:49;;;;;;;1.20;0.77;;;;;;;-143.84;90.53;45239.50;5089835;28;20438;-60
2023/12/15 10:25:21;;;;;;;0.80;0.50;;;;;;;-143.84;90.67;45247.09;5092592;28;20817;-60
2023/12/15 10:27:49;;;;;;;0.87;0.67;;;;;;;-143.84;90.08;45228.06;5092594;28;20785;-60
2023/12/15 10:30:17;;;;;;;1.20;0.70;;;;;;;-143.84;90.05;45214.72;5092212;28;20559;-60
2023/12/15 10:32:45;;;;;;;0.80;0.50;;;;;;;-143.84;90.01;45224.25;5092378;28;20502;-60
2023/12/15 10:35:14;;;;;;;0.80;0.70;;;;;;;-143.84;90.15;45235.69;5092061;28;20505;-60
2023/12/15 10:37:42;;;;;;;0.80;0.50;;;;;;;-143.84;91.12;45229.97;5092231;28;20446;-60
2023/12/15 10:40:10;;;;;;;0.80;0.40;;;;;;;-143.84;91.02;45220.44;5092306;28;20438;-60
2023/12/15 10:42:41;;;;;;;0.80;0.50;;;;;;;-143.84;91.23;45249.00;5092066;28;20446;-60
2023/12/15 10:45:09;;;;;;;0.80;0.40;;;;;;;-143.84;91.06;45233.78;5092240;28;20505;-60
2023/12/15 10:47:36;;;;;;;0.80;0.60;;;;;;;-143.84;91.23;45231.88;5092236;28;20439;-60
2023/12/15 10:50:07;;;;;;;0.90;0.70;;;;;;;-143.84;91.07;45231.88;5088096;28;20487;-60
2023/12/15 10:52:37;;;;;;;1.00;0.87;;;;;;;-143.84;91.29;45218.53;5091611;28;20545;-60
2023/12/15 10:55:06;;;;;;;1.00;0.70;;;;;;;-143.84;91.44;45243.31;5092256;28;20483;-60
2023/12/15 10:57:34;;;;;;;0.80;0.50;;;;;;;-143.84;91.52;45218.53;5091851;28;20439;-60
2023/12/15 11:00:04;;;;;;;0.80;0.60;;;;;;;-143.84;90.74;45216.63;5092439;28;20434;-60
2023/12/15 11:02:34;;;;;;;0.80;0.50;;;;;;;-143.84;90.78;45209.03;5091589;28;20950;-60
2023/12/15 11:05:01;;;;;;;0.80;0.40;;;;;;;-143.84;91.18;45237.59;5091770;28;20434;-60
2023/12/15 11:07:29;;;;;;;0.80;0.60;;;;;;;-143.84;90.18;45226.16;5091213;28;20438;-60
2023/12/15 11:09:59;;;;;;;0.80;0.50;;;;;;;-143.84;90.44;45256.63;5091400;28;20451;-61
2023/12/15 11:12:31;;;;;;;1.17;0.60;;;;;;;-143.84;90.21;45237.59;5091533;28;20433;-60
2023/12/15 11:15:00;;;;;;;1.00;0.80;;;;;;;-143.84;90.54;45209.03;5091267;28;20444;-61
2023/12/15 11:17:30;;;;;;;138.20;58.40;;;;;;;-143.84;91.14;45207.13;5091610;28;21348;-60